Time;durP1;ratioP1;P1;durP2;ratioP2;P2;SDS_P1;SDS_P2;PMS_P1;PMS_P2;Temp;Humidity;BMP_temperature;BMP_pressure;BME280_temperature;BME280_humidity;BME280_pressure;Samples;Min_cycle;Max_cycle;Signal;HPM_P1;HPM_P2
2023/03/13 00:01:51;;;;;;;;;;;;;;;32.28;19.31;101162.53;5078606;28;1229;-17
2023/03/13 00:04:16;;;;;;;;;;;;;;;32.31;19.56;101162.97;5077485;28;1122;-17
2023/03/13 00:06:42;;;;;;;;;;;;;;;32.34;19.63;101167.13;5069287;28;1060;-18
2023/03/13 00:09:08;;;;;;;;;;;;;;;32.19;19.80;101170.91;5078165;28;1913;-18
2023/03/13 00:11:33;;;;;;;;;;;;;;;32.21;19.70;101166.09;5078530;28;1125;-18
2023/03/13 00:13:59;;;;;;;;;;;;;;;32.24;19.79;101164.81;5077907;28;1121;-17
2023/03/13 00:16:26;;;;;;;;;;;;;;;32.36;19.80;101173.22;5085980;28;1155;-18
2023/03/13 00:18:51;;;;;;;;;;;;;;;32.05;19.68;101163.78;5080215;28;1102;-18
2023/03/13 00:21:18;;;;;;;;;;;;;;;32.25;19.16;101170.06;5078475;28;1110;-18
2023/03/13 00:23:43;;;;;;;;;;;;;;;32.26;19.06;101169.00;5077227;28;1079;-17
2023/03/13 00:26:09;;;;;;;;;;;;;;;32.45;18.70;101162.97;5060271;28;1114;-18
2023/03/13 00:28:35;;;;;;;;;;;;;;;32.43;18.86;101167.78;5082139;28;1984;-18
2023/03/13 00:31:04;;;;;;;;;;;;;;;32.28;19.36;101173.41;5078238;28;1089;-18
2023/03/13 00:33:31;;;;;;;;;;;;;;;32.30;19.05;101165.88;5078048;28;1101;-18
2023/03/13 00:35:57;;;;;;;;;;;;;;;32.34;18.88;101170.69;5077941;28;1147;-18
2023/03/13 00:38:22;;;;;;;;;;;;;;;32.42;18.74;101177.81;5077711;28;987;-18
2023/03/13 00:40:48;;;;;;;;;;;;;;;32.30;19.01;101172.16;5086771;28;1070;-18
2023/03/13 00:43:13;;;;;;;;;;;;;;;32.20;19.14;101179.91;5061978;28;1246;-18
2023/03/13 00:45:39;;;;;;;;;;;;;;;32.29;18.88;101175.94;5068790;28;1011;-18
2023/03/13 00:48:04;;;;;;;;;;;;;;;32.12;19.20;101178.19;5077649;28;1906;-18
2023/03/13 00:50:30;;;;;;;;;;;;;;;32.15;19.16;101172.34;5077821;28;1090;-18
2023/03/13 00:52:55;;;;;;;;;;;;;;;32.12;18.85;101175.47;5064878;28;990;-18
2023/03/13 00:55:21;;;;;;;;;;;;;;;32.08;19.31;101175.06;5077576;28;1158;-18
2023/03/13 00:57:46;;;;;;;;;;;;;;;32.28;18.73;101171.53;5059387;28;1103;-17
2023/03/13 01:00:12;;;;;;;;;;;;;;;32.08;19.16;101179.69;5077651;28;1078;-18
2023/03/13 01:02:42;;;;;;;;;;;;;;;32.15;19.00;101168.81;5077276;28;1019;-18
2023/03/13 01:05:08;;;;;;;;;;;;;;;32.05;19.48;101174.66;5070303;28;1248;-18
2023/03/13 01:07:34;;;;;;;;;;;;;;;31.96;19.31;101180.28;5065944;28;1976;-18
2023/03/13 01:09:59;;;;;;;;;;;;;;;32.03;19.81;101184.91;5059040;28;1063;-18
2023/03/13 01:12:25;;;;;;;;;;;;;;;32.21;19.46;101185.16;5076791;28;1238;-17
2023/03/13 01:14:50;;;;;;;;;;;;;;;32.31;19.42;101181.16;5077705;28;1150;-17
2023/03/13 01:17:16;;;;;;;;;;;;;;;32.25;19.32;101185.53;5078544;28;1098;-17
2023/03/13 01:19:41;;;;;;;;;;;;;;;32.25;19.59;101175.50;5050678;28;1218;-18
2023/03/13 01:22:10;;;;;;;;;;;;;;;32.11;19.65;101179.25;5059079;28;1406;-18
2023/03/13 01:24:35;;;;;;;;;;;;;;;32.17;19.41;101183.03;5058926;28;1114;-17
2023/03/13 01:27:01;;;;;;;;;;;;;;;32.15;19.41;101187.84;5076480;28;1906;-17
2023/03/13 01:29:27;;;;;;;;;;;;;;;31.95;19.50;101192.16;5077361;28;879;-17
2023/03/13 01:31:52;;;;;;;;;;;;;;;32.13;19.22;101201.66;5076711;28;1066;-18
2023/03/13 01:34:18;;;;;;;;;;;;;;;32.09;18.98;101198.53;5077032;28;1117;-17
2023/03/13 01:36:45;;;;;;;;;;;;;;;32.07;19.71;101206.03;5076402;28;1015;-17
2023/03/13 01:39:11;;;;;;;;;;;;;;;32.21;19.12;101200.63;5076658;28;1154;-17
2023/03/13 01:41:36;;;;;;;;;;;;;;;32.24;19.31;101195.63;5083809;28;1061;-18
2023/03/13 01:44:02;;;;;;;;;;;;;;;32.17;19.12;101197.47;5076557;28;1066;-18
2023/03/13 01:46:33;;;;;;;;;;;;;;;32.28;18.77;101203.34;5058159;28;1284;-17
2023/03/13 01:49:10;;;;;;;;;;;;;;;32.09;18.71;101209.41;5076220;28;1973;-18
2023/03/13 01:51:56;;;;;;;;;;;;;;;32.12;18.87;101214.44;5058651;28;1265;-17
2023/03/13 01:54:27;;;;;;;;;;;;;;;32.21;18.71;101220.53;5059258;28;1334;-18
2023/03/13 01:56:57;;;;;;;;;;;;;;;32.24;18.60;101227.44;5076100;28;1201;-17
2023/03/13 01:59:27;;;;;;;;;;;;;;;32.30;18.54;101223.88;5058577;28;1210;-17
2023/03/13 02:01:54;;;;;;;;;;;;;;;32.19;19.02;101233.50;5041846;28;1301;-18
2023/03/13 02:04:19;;;;;;;;;;;;;;;32.21;18.95;101236.88;5058365;28;1087;-18
2023/03/13 02:06:45;;;;;;;;;;;;;;;32.25;19.07;101249.00;5067118;28;1022;-17
2023/03/13 02:09:11;;;;;;;;;;;;;;;32.26;18.98;101247.13;5058137;28;1909;-17
2023/03/13 02:11:54;;;;;;;;;;;;;;;32.12;18.82;101247.09;5076506;28;1154;-18
2023/03/13 02:14:20;;;;;;;;;;;;;;;31.96;19.13;101248.31;5041402;28;1244;-17
2023/03/13 02:16:50;;;;;;;;;;;;;;;32.05;18.82;101248.13;5057994;28;1249;-17
2023/03/13 02:19:17;;;;;;;;;;;;;;;32.07;18.94;101254.19;5057971;28;1121;-18
2023/03/13 02:21:51;;;;;;;;;;;;;;;32.15;18.87;101253.16;5057914;28;1944;-17
2023/03/13 02:24:17;;;;;;;;;;;;;;;32.11;19.17;101256.31;5058479;28;1130;-17
2023/03/13 02:26:43;;;;;;;;;;;;;;;32.00;19.19;101259.59;5058009;28;1216;-18
2023/03/13 02:29:09;;;;;;;;;;;;;;;32.17;18.80;101267.38;5063436;28;1971;-17
2023/03/13 02:31:34;;;;;;;;;;;;;;;32.16;18.83;101272.03;5062319;28;1093;-17
2023/03/13 02:34:00;;;;;;;;;;;;;;;32.07;18.93;101274.06;5058252;28;1246;-17
2023/03/13 02:36:25;;;;;;;;;;;;;;;32.13;18.86;101275.97;5058265;28;1070;-17
2023/03/13 02:38:52;;;;;;;;;;;;;;;32.17;18.99;101272.84;5057841;28;1034;-18
2023/03/13 02:41:18;;;;;;;;;;;;;;;32.22;18.60;101283.94;5045757;28;1351;-18
2023/03/13 02:43:43;;;;;;;;;;;;;;;32.14;18.70;101284.97;5037530;28;1280;-18
2023/03/13 02:46:13;;;;;;;;;;;;;;;31.98;19.12;101288.91;5052149;28;1515;-17
2023/03/13 02:48:43;;;;;;;;;;;;;;;32.06;18.86;101296.06;5075805;28;1906;-17
2023/03/13 02:51:12;;;;;;;;;;;;;;;32.13;18.90;101299.66;5057649;28;1193;-17
2023/03/13 02:53:37;;;;;;;;;;;;;;;32.00;18.94;101303.13;5083493;28;1130;-18
2023/03/13 02:56:03;;;;;;;;;;;;;;;32.06;18.64;101302.34;5048098;28;1189;-18
2023/03/13 02:58:34;;;;;;;;;;;;;;;32.04;18.67;101288.09;5057565;28;1193;-18
2023/03/13 03:01:07;;;;;;;;;;;;;;;32.07;18.82;101303.16;5057384;28;1464;-18
2023/03/13 03:03:38;;;;;;;;;;;;;;;32.06;18.92;101299.63;5057961;28;1348;-17
2023/03/13 03:06:04;;;;;;;;;;;;;;;32.06;18.92;101306.94;5085764;28;1078;-18
2023/03/13 03:08:29;;;;;;;;;;;;;;;32.09;18.83;101307.38;5061307;28;1906;-17
2023/03/13 03:10:55;;;;;;;;;;;;;;;32.18;18.52;101316.19;5061517;28;1209;-17
2023/03/13 03:13:21;;;;;;;;;;;;;;;32.00;18.79;101314.03;5061808;28;1162;-17
2023/03/13 03:15:47;;;;;;;;;;;;;;;32.07;18.54;101325.78;5061279;28;1257;-17
2023/03/13 03:18:12;;;;;;;;;;;;;;;32.03;18.63;101323.69;5091025;28;1050;-18
2023/03/13 03:20:38;;;;;;;;;;;;;;;31.94;19.00;101331.13;5080515;28;1082;-18
2023/03/13 03:23:03;;;;;;;;;;;;;;;31.95;18.77;101332.84;5079244;28;1117;-17
2023/03/13 03:25:29;;;;;;;;;;;;;;;32.15;18.39;101332.91;5079687;28;1155;-17
2023/03/13 03:27:54;;;;;;;;;;;;;;;31.91;18.68;101329.66;5061256;28;1910;-17
2023/03/13 03:30:20;;;;;;;;;;;;;;;31.98;18.72;101327.00;5085300;28;1163;-18
2023/03/13 03:32:45;;;;;;;;;;;;;;;31.81;18.93;101331.91;5061168;28;1141;-17
2023/03/13 03:35:11;;;;;;;;;;;;;;;31.84;18.79;101335.06;5079240;28;1225;-17
2023/03/13 03:37:36;;;;;;;;;;;;;;;31.98;18.94;101332.44;5060823;28;1220;-18
2023/03/13 03:40:06;;;;;;;;;;;;;;;31.69;18.82;101335.19;5060739;28;1178;-17
2023/03/13 03:42:32;;;;;;;;;;;;;;;30.36;20.26;101337.34;5067850;28;895;-18
2023/03/13 03:44:57;;;;;;;;;;;;;;;29.38;21.15;101336.41;5059225;28;1151;-18
2023/03/13 03:47:23;;;;;;;;;;;;;;;28.86;21.94;101339.69;5060952;28;2065;-17
2023/03/13 03:49:49;;;;;;;;;;;;;;;28.23;22.67;101344.06;5061010;28;1252;-16
2023/03/13 03:52:16;;;;;;;;;;;;;;;28.18;22.96;101337.47;5060405;28;1541;-16
2023/03/13 03:54:42;;;;;;;;;;;;;;;28.09;23.05;101334.81;5044551;28;1227;-16
2023/03/13 03:57:08;;;;;;;;;;;;;;;27.93;23.45;101343.00;5061195;28;1452;-16
2023/03/13 03:59:35;;;;;;;;;;;;;;;27.89;23.53;101344.38;5078503;28;1086;-16
2023/03/13 04:02:08;;;;;;;;;;;;;;;27.60;23.54;101352.00;5060538;28;1254;-17
2023/03/13 04:04:34;;;;;;;;;;;;;;;27.57;23.71;101352.34;5060585;28;1298;-16
2023/03/13 04:07:08;;;;;;;;;;;;;;;27.54;23.97;101356.25;5047942;28;1985;-16
2023/03/13 04:09:34;;;;;;;;;;;;;;;27.49;23.85;101359.44;5060693;28;1293;-16
2023/03/13 04:12:01;;;;;;;;;;;;;;;27.48;24.15;101355.06;5060354;28;1338;-16
2023/03/13 04:14:30;;;;;;;;;;;;;;;27.28;24.14;101356.44;5060053;28;1362;-16
2023/03/13 04:16:56;;;;;;;;;;;;;;;27.20;24.38;101358.13;5060184;28;1432;-16
2023/03/13 04:19:23;;;;;;;;;;;;;;;27.17;24.54;101366.56;5060601;28;1110;-17
2023/03/13 04:21:49;;;;;;;;;;;;;;;27.17;24.23;101376.53;5060271;28;1320;-17
2023/03/13 04:24:16;;;;;;;;;;;;;;;27.19;24.52;101369.97;5060413;28;1335;-17
2023/03/13 04:26:43;;;;;;;;;;;;;;;27.85;24.06;101371.75;5060284;28;1162;-17
2023/03/13 04:29:09;;;;;;;;;;;;;;;29.28;21.82;101380.00;5060093;28;1910;-17
2023/03/13 04:31:53;;;;;;;;;;;;;;;29.93;20.01;101382.25;5075563;28;917;-17
2023/03/13 04:34:53;;;;;;;;;;;;;;;29.68;19.37;101383.38;5016121;28;1383;-17
2023/03/13 04:37:39;;;;;;;;;;;;;;;29.03;17.04;101382.91;5057105;28;1278;-17
2023/03/13 04:40:27;;;;;;;;;;;;;;;29.52;15.35;101389.78;5077296;28;1245;-17
2023/03/13 04:43:02;;;;;;;;;;;;;;;30.18;13.81;101385.53;5068279;28;1149;-16
2023/03/13 04:45:53;;;;;;;;;;;;;;;30.37;13.11;101396.03;5038334;28;1369;-16
2023/03/13 04:48:41;;;;;;;;;;;;;;;30.54;12.89;101397.50;5057949;28;1971;-16
2023/03/13 04:51:36;;;;;;;;;;;;;;;30.83;12.48;101403.03;5049683;28;1345;-17
2023/03/13 04:54:27;;;;;;;;;;;;;;;30.92;12.25;101401.91;5074919;28;1476;-16
2023/03/13 04:57:10;;;;;;;;;;;;;;;30.86;13.22;101409.97;5044665;28;1669;-16
2023/03/13 04:59:46;;;;;;;;;;;;;;;30.86;13.39;101418.13;5067034;28;1358;-16
2023/03/13 05:02:18;;;;;;;;;;;;;;;30.14;12.53;101419.50;5097850;28;1097;-16
2023/03/13 05:05:07;;;;;;;;;;;;;;;30.79;12.68;101428.88;5067949;28;1098;-16
2023/03/13 05:07:54;;;;;;;;;;;;;;;30.73;12.33;101427.75;5041197;28;1913;-16
2023/03/13 05:10:58;;;;;;;;;;;;;;;29.94;12.67;101436.34;5000640;28;1197;-17
2023/03/13 05:13:42;;;;;;;;;;;;;;;28.63;13.70;101442.53;4999941;28;1372;-16
2023/03/13 05:16:18;;;;;;;;;;;;;;;29.61;13.59;101439.38;5043423;28;996;-16
2023/03/13 05:19:08;;;;;;;;;;;;;;;30.36;13.32;101432.34;5059825;28;1197;-16
2023/03/13 05:21:40;;;;;;;;;;;;;;;30.34;14.09;101442.53;5060023;28;1281;-16
2023/03/13 05:24:35;;;;;;;;;;;;;;;30.53;14.16;101443.84;5055095;28;1700;-16
2023/03/13 05:27:21;;;;;;;;;;;;;;;30.06;14.97;101444.84;5024382;28;1980;-16
2023/03/13 05:30:08;;;;;;;;;;;;;;;29.69;15.67;101442.03;5057600;28;1256;-17
2023/03/13 05:32:56;;;;;;;;;;;;;;;29.43;16.24;101442.34;5037031;28;1441;-16
2023/03/13 05:35:44;;;;;;;;;;;;;;;29.18;15.88;101446.13;5084254;28;1043;-16
2023/03/13 05:38:35;;;;;;;;;;;;;;;27.92;16.80;101450.31;5064166;28;1198;-16
2023/03/13 05:41:09;;;;;;;;;;;;;;;28.69;16.76;101450.78;5060927;28;1369;-16
2023/03/13 05:43:53;;;;;;;;;;;;;;;28.73;16.41;101462.94;5060906;28;1366;-16
2023/03/13 05:46:41;;;;;;;;;;;;;;;27.48;17.63;101467.69;5047951;28;1325;-16
2023/03/13 05:49:36;;;;;;;;;;;;;;;28.50;16.92;101471.00;5019988;28;1243;-16
2023/03/13 05:52:21;;;;;;;;;;;;;;;28.47;17.15;101471.34;5065126;28;1080;-16
2023/03/13 05:55:05;;;;;;;;;;;;;;;28.48;17.54;101473.03;5062798;28;1365;-16
2023/03/13 05:57:47;;;;;;;;;;;;;;;28.37;17.77;101476.97;5072183;28;1316;-16
2023/03/13 06:00:36;;;;;;;;;;;;;;;28.27;18.08;101478.97;5084035;28;1146;-16
2023/03/13 06:03:21;;;;;;;;;;;;;;;28.45;18.15;101476.06;5068240;28;1259;-16
2023/03/13 06:05:55;;;;;;;;;;;;;;;28.68;18.08;101476.16;5056213;28;1214;-17
2023/03/13 06:08:31;;;;;;;;;;;;;;;28.89;17.67;101479.28;5077569;28;1914;-16
2023/03/13 06:11:00;;;;;;;;;;;;;;;29.11;17.54;101487.66;5078286;28;1125;-16
2023/03/13 06:13:26;;;;;;;;;;;;;;;29.27;17.51;101487.56;5066121;28;1249;-16
2023/03/13 06:15:54;;;;;;;;;;;;;;;29.44;17.35;101493.72;5071204;28;1201;-16
2023/03/13 06:18:46;;;;;;;;;;;;;;;28.95;17.98;101500.22;5066190;28;1541;-16
2023/03/13 06:21:12;;;;;;;;;;;;;;;28.56;18.37;101501.94;5063433;28;1240;-16
2023/03/13 06:23:38;;;;;;;;;;;;;;;29.23;17.77;101507.88;5063673;28;1552;-17
2023/03/13 06:26:03;;;;;;;;;;;;;;;29.18;17.36;101499.44;5067291;28;1293;-17
2023/03/13 06:28:29;;;;;;;;;;;;;;;29.63;16.86;101501.56;5074367;28;1914;-17
2023/03/13 06:30:58;;;;;;;;;;;;;;;29.61;16.94;101504.44;5070796;28;1071;-16
2023/03/13 06:33:25;;;;;;;;;;;;;;;29.47;17.49;101500.63;5043715;28;1724;-16
2023/03/13 06:35:50;;;;;;;;;;;;;;;29.28;17.71;101507.38;5070898;28;997;-16
2023/03/13 06:38:16;;;;;;;;;;;;;;;29.20;17.90;101502.81;5076542;28;1150;-16
2023/03/13 06:40:41;;;;;;;;;;;;;;;29.32;17.64;101505.97;5076983;28;1181;-17
2023/03/13 06:43:07;;;;;;;;;;;;;;;29.56;17.77;101494.09;5084200;28;983;-17
2023/03/13 06:45:33;;;;;;;;;;;;;;;29.60;17.86;101497.31;5063320;28;1159;-16
2023/03/13 06:47:59;;;;;;;;;;;;;;;29.24;18.09;101495.19;5062490;28;1972;-17
2023/03/13 06:50:24;;;;;;;;;;;;;;;29.11;18.62;101493.94;5062251;28;1024;-16
2023/03/13 06:52:50;;;;;;;;;;;;;;;29.21;18.61;101499.13;5073746;28;1183;-17
2023/03/13 06:55:15;;;;;;;;;;;;;;;29.01;18.87;101490.59;5074310;28;1473;-16
2023/03/13 06:57:41;;;;;;;;;;;;;;;30.14;18.00;101494.63;5060394;28;1184;-16
2023/03/13 07:00:10;;;;;;;;;;;;;;;29.99;17.92;101498.19;5064418;28;1073;-16
2023/03/13 07:02:35;;;;;;;;;;;;;;;29.77;18.21;101497.19;5066047;28;1230;-16
2023/03/13 07:05:04;;;;;;;;;;;;;;;29.82;18.34;101494.78;5059691;28;1261;-16
2023/03/13 07:07:31;;;;;;;;;;;;;;;29.61;18.27;101492.75;5078753;28;1906;-16
2023/03/13 07:09:57;;;;;;;;;;;;;;;29.35;18.93;101494.78;5078294;28;1085;-16
2023/03/13 07:12:22;;;;;;;;;;;;;;;29.51;18.76;101492.97;5078667;28;1066;-16
2023/03/13 07:14:48;;;;;;;;;;;;;;;29.73;18.53;101487.75;5078700;28;1121;-16
2023/03/13 07:17:14;;;;;;;;;;;;;;;29.66;18.47;101496.59;5079106;28;1190;-16
2023/03/13 07:19:39;;;;;;;;;;;;;;;29.34;18.67;101493.91;5080577;28;1118;-16
2023/03/13 07:22:05;;;;;;;;;;;;;;;29.23;19.11;101499.75;5059836;28;1234;-16
2023/03/13 07:24:30;;;;;;;;;;;;;;;29.02;19.38;101500.41;5057927;28;1138;-16
2023/03/13 07:26:56;;;;;;;;;;;;;;;29.42;19.16;101500.31;5079112;28;1079;-16
2023/03/13 07:29:22;;;;;;;;;;;;;;;29.54;18.78;101495.31;5078930;28;1980;-16
2023/03/13 07:31:47;;;;;;;;;;;;;;;29.35;18.87;101492.06;5075405;28;1134;-16
2023/03/13 07:34:13;;;;;;;;;;;;;;;29.20;19.15;101492.00;5059122;28;1273;-16
2023/03/13 07:36:40;;;;;;;;;;;;;;;29.05;19.21;101494.63;5077965;28;1084;-16
2023/03/13 07:39:06;;;;;;;;;;;;;;;28.92;19.48;101497.88;5067978;28;1273;-16
2023/03/13 07:41:31;;;;;;;;;;;;;;;28.73;19.68;101497.28;5069126;28;1036;-16
2023/03/13 07:43:57;;;;;;;;;;;;;;;28.72;19.50;101493.75;5069414;28;1218;-16
2023/03/13 07:46:22;;;;;;;;;;;;;;;28.52;19.71;101495.16;5061568;28;1153;-16
2023/03/13 07:48:48;;;;;;;;;;;;;;;28.28;20.08;101488.81;5063745;28;2011;-15
2023/03/13 07:51:17;;;;;;;;;;;;;;;28.01;20.37;101489.00;5077677;28;1023;-16
2023/03/13 07:53:43;;;;;;;;;;;;;;;28.33;20.25;101489.13;5092145;28;1086;-16
2023/03/13 07:56:10;;;;;;;;;;;;;;;28.90;19.65;101492.63;5095478;28;1146;-16
2023/03/13 07:58:36;;;;;;;;;;;;;;;29.37;19.17;101498.16;5098557;28;1105;-16
2023/03/13 08:01:12;;;;;;;;;;;;;;;29.26;18.99;101493.16;5071908;28;1224;-16
2023/03/13 08:03:37;;;;;;;;;;;;;;;29.11;19.33;101483.09;5080283;28;1259;-16
2023/03/13 08:06:04;;;;;;;;;;;;;;;29.67;18.93;101492.00;5093012;28;1039;-16
2023/03/13 08:08:30;;;;;;;;;;;;;;;29.21;19.53;101496.41;5089857;28;1985;-16
2023/03/13 08:10:59;;;;;;;;;;;;;;;28.71;19.94;101491.22;5098598;28;1014;-16
2023/03/13 08:13:25;;;;;;;;;;;;;;;28.59;20.08;101493.47;5086092;28;1129;-15
2023/03/13 08:15:50;;;;;;;;;;;;;;;28.63;19.84;101494.78;5084391;28;1027;-15
2023/03/13 08:18:16;;;;;;;;;;;;;;;28.54;20.06;101488.59;5084648;28;1233;-15
2023/03/13 08:20:41;;;;;;;;;;;;;;;28.74;19.87;101496.28;5084806;28;869;-15
2023/03/13 08:23:07;;;;;;;;;;;;;;;29.02;19.90;101481.44;5078170;28;1221;-16
2023/03/13 08:25:32;;;;;;;;;;;;;;;29.68;19.34;101477.41;5060767;28;1099;-16
2023/03/13 08:27:58;;;;;;;;;;;;;;;29.16;18.96;101475.25;5060200;28;1926;-16
2023/03/13 08:30:23;;;;;;;;;;;;;;;28.99;19.24;101479.09;5078103;28;1050;-16
2023/03/13 08:32:49;;;;;;;;;;;;;;;29.21;19.25;101480.97;5079576;28;1082;-16
2023/03/13 08:35:14;;;;;;;;;;;;;;;29.49;19.09;101479.59;5070402;28;1052;-16
2023/03/13 08:37:40;;;;;;;;;;;;;;;29.06;19.09;101475.47;5083618;28;1130;-16
2023/03/13 08:40:10;;;;;;;;;;;;;;;29.03;19.52;101481.25;5085564;28;1112;-16
2023/03/13 08:42:36;;;;;;;;;;;;;;;28.83;19.78;101470.00;5077705;28;1062;-16
2023/03/13 08:45:01;;;;;;;;;;;;;;;29.23;19.35;101475.38;5078497;28;926;-16
2023/03/13 08:47:27;;;;;;;;;;;;;;;29.62;19.04;101473.59;5065920;28;1981;-16
2023/03/13 08:49:54;;;;;;;;;;;;;;;29.24;19.55;101485.19;5072885;28;1115;-15
2023/03/13 08:52:19;;;;;;;;;;;;;;;29.12;19.52;101475.78;5094654;28;865;-16
2023/03/13 08:54:47;;;;;;;;;;;;;;;29.04;19.69;101473.97;5086344;28;1154;-16
2023/03/13 08:57:12;;;;;;;;;;;;;;;28.86;20.01;101480.50;5079265;28;1022;-15
2023/03/13 08:59:38;;;;;;;;;;;;;;;28.68;20.38;101480.72;5060325;28;1213;-16
2023/03/13 09:02:03;;;;;;;;;;;;;;;28.65;20.41;101483.78;5088764;28;1054;-16
2023/03/13 09:04:29;;;;;;;;;;;;;;;28.69;20.25;101477.88;5091039;28;1152;-16
2023/03/13 09:06:54;;;;;;;;;;;;;;;28.64;20.27;101480.25;5077231;28;1067;-17
2023/03/13 09:09:20;;;;;;;;;;;;;;;28.55;20.53;101468.59;5085586;28;1913;-17
2023/03/13 09:11:45;;;;;;;;;;;;;;;28.62;20.57;101465.19;5077201;28;1150;-17
2023/03/13 09:14:11;;;;;;;;;;;;;;;28.56;20.36;101469.47;5064242;28;1073;-17
2023/03/13 09:16:36;;;;;;;;;;;;;;;28.53;20.54;101467.09;5064923;28;1422;-17
2023/03/13 09:19:02;;;;;;;;;;;;;;;28.43;20.62;101461.88;5076299;28;1092;-17
2023/03/13 09:21:28;;;;;;;;;;;;;;;28.40;20.43;101456.81;5079430;28;944;-17
2023/03/13 09:23:54;;;;;;;;;;;;;;;28.39;20.55;101463.25;5076249;28;1063;-16
2023/03/13 09:26:19;;;;;;;;;;;;;;;28.36;20.67;101456.34;5065807;28;1004;-18
2023/03/13 09:28:45;;;;;;;;;;;;;;;28.34;20.57;101466.50;5057975;28;1971;-17
2023/03/13 09:31:29;;;;;;;;;;;;;;;28.31;20.57;101464.94;5073877;28;1255;-17
2023/03/13 09:33:54;;;;;;;;;;;;;;;28.32;20.79;101465.78;5086187;28;905;-17
2023/03/13 09:36:20;;;;;;;;;;;;;;;28.35;20.42;101462.75;5058883;28;1182;-17
2023/03/13 09:38:45;;;;;;;;;;;;;;;28.17;20.45;101468.34;5063179;28;1254;-18
2023/03/13 09:41:25;;;;;;;;;;;;;;;28.14;20.12;101471.41;5076044;28;936;-17
2023/03/13 09:43:56;;;;;;;;;;;;;;;28.24;20.21;101478.31;5076092;28;1131;-18
2023/03/13 09:46:31;;;;;;;;;;;;;;;28.01;20.72;101482.75;5064608;28;1071;-17
2023/03/13 09:48:58;;;;;;;;;;;;;;;27.87;20.33;101488.69;5084443;28;1910;-18
2023/03/13 09:51:25;;;;;;;;;;;;;;;27.82;20.25;101480.25;5076451;28;1067;-18
2023/03/13 09:53:52;;;;;;;;;;;;;;;27.89;20.03;101475.00;5058200;28;1019;-18
2023/03/13 09:56:24;;;;;;;;;;;;;;;27.89;20.09;101477.72;5063478;28;1127;-18
2023/03/13 09:58:57;;;;;;;;;;;;;;;27.65;20.50;101479.38;5063558;28;1164;-18
2023/03/13 10:01:25;;;;;;;;;;;;;;;27.60;19.96;101477.19;5069885;28;983;-18
2023/03/13 10:03:54;;;;;;;;;;;;;;;27.22;19.30;101469.56;5077717;28;1130;-18
2023/03/13 10:06:20;;;;;;;;;;;;;;;27.03;19.48;101470.69;5068639;28;1115;-18
2023/03/13 10:08:45;;;;;;;;;;;;;;;27.13;20.18;101474.09;5043801;28;1914;-18
2023/03/13 10:11:15;;;;;;;;;;;;;;;27.06;20.88;101469.53;5067076;28;1246;-18
2023/03/13 10:13:45;;;;;;;;;;;;;;;27.12;20.15;101474.25;5075930;28;1166;-18
2023/03/13 10:16:11;;;;;;;;;;;;;;;27.08;20.25;101470.19;5068500;28;1250;-18
2023/03/13 10:18:36;;;;;;;;;;;;;;;27.18;20.82;101468.19;5083860;28;1050;-18
2023/03/13 10:21:06;;;;;;;;;;;;;;;27.22;20.59;101464.16;5067950;28;1074;-18
2023/03/13 10:23:36;;;;;;;;;;;;;;;27.22;20.71;101461.44;5073494;28;1059;-18
2023/03/13 10:26:01;;;;;;;;;;;;;;;27.17;20.26;101466.50;5069099;28;1145;-17
2023/03/13 10:28:27;;;;;;;;;;;;;;;26.99;20.66;101469.28;5049623;28;2036;-18
2023/03/13 10:30:53;;;;;;;;;;;;;;;27.07;20.50;101453.16;5067167;28;1103;-17
2023/03/13 10:33:21;;;;;;;;;;;;;;;27.15;20.39;101460.41;5067688;28;1245;-17
2023/03/13 10:35:46;;;;;;;;;;;;;;;27.13;20.22;101452.47;5094727;28;1138;-18
2023/03/13 10:38:12;;;;;;;;;;;;;;;27.12;20.32;101456.19;5077598;28;1138;-18
2023/03/13 10:40:37;;;;;;;;;;;;;;;27.09;20.27;101448.41;5096075;28;1022;-18
2023/03/13 10:43:16;;;;;;;;;;;;;;;27.06;20.38;101443.34;5065884;28;1158;-18
2023/03/13 10:45:42;;;;;;;;;;;;;;;27.05;20.04;101448.91;5067901;28;936;-18
2023/03/13 10:48:11;;;;;;;;;;;;;;;27.08;20.55;101446.72;5074929;28;1965;-18
2023/03/13 10:50:37;;;;;;;;;;;;;;;27.06;20.43;101448.75;5075848;28;1190;-17
2023/03/13 10:53:23;;;;;;;;;;;;;;;27.04;20.41;101444.53;5055028;28;1152;-17
2023/03/13 10:55:48;;;;;;;;;;;;;;;26.97;20.01;101438.91;5065078;28;1277;-18
2023/03/13 10:58:18;;;;;;;;;;;;;;;27.05;20.51;101443.50;5081973;28;948;-18
2023/03/13 11:00:43;;;;;;;;;;;;;;;26.98;20.60;101441.44;5055509;28;1254;-18
2023/03/13 11:03:32;;;;;;;;;;;;;;;26.89;20.49;101437.88;5037959;28;1234;-18
2023/03/13 11:06:00;;;;;;;;;;;;;;;26.94;20.06;101434.69;5055159;28;1211;-18
2023/03/13 11:08:26;;;;;;;;;;;;;;;27.01;20.25;101434.84;5055712;28;1969;-18
2023/03/13 11:10:56;;;;;;;;;;;;;;;26.99;21.10;101428.78;5082489;28;917;-18
2023/03/13 11:13:34;;;;;;;;;;;;;;;26.90;21.15;101420.69;5075744;28;1289;-18
2023/03/13 11:16:02;;;;;;;;;;;;;;;26.85;20.80;101433.81;5075299;28;1249;-18
2023/03/13 11:18:39;;;;;;;;;;;;;;;26.89;20.50;101424.38;5075335;28;1014;-18
2023/03/13 11:21:05;;;;;;;;;;;;;;;26.90;20.44;101420.69;5053481;28;1225;-18
2023/03/13 11:23:36;;;;;;;;;;;;;;;26.82;20.66;101409.88;5073421;28;1188;-18
2023/03/13 11:26:10;;;;;;;;;;;;;;;26.81;20.43;101400.06;5060111;28;1074;-18
2023/03/13 11:28:39;;;;;;;;;;;;;;;26.64;20.48;101399.19;5074231;28;1918;-18
2023/03/13 11:31:29;;;;;;;;;;;;;;;26.86;20.97;101408.50;5063420;28;1477;-18
2023/03/13 11:34:05;;;;;;;;;;;;;;;26.74;20.94;101397.16;5066982;28;1878;-18
2023/03/13 11:36:34;;;;;;;;;;;;;;;26.70;21.13;101387.72;5047001;28;1134;-18
2023/03/13 11:39:18;;;;;;;;;;;;;;;26.72;20.29;101387.56;5077448;28;1035;-18
2023/03/13 11:41:57;;;;;;;;;;;;;;;26.81;23.51;101391.13;5066745;28;1183;-18
2023/03/13 11:44:27;;;;;;;;;;;;;;;26.86;25.49;101386.91;5059187;28;1205;-18
2023/03/13 11:46:52;;;;;;;;;;;;;;;26.80;27.89;101381.34;5077231;28;896;-18
2023/03/13 11:49:18;;;;;;;;;;;;;;;26.68;26.09;101373.56;5063080;28;1906;-18
2023/03/13 11:51:49;;;;;;;;;;;;;;;26.69;25.71;101385.19;5070080;28;1147;-18
2023/03/13 11:54:23;;;;;;;;;;;;;;;26.51;24.47;101378.03;5079133;28;1209;-18
2023/03/13 11:56:54;;;;;;;;;;;;;;;26.44;24.00;101388.66;5060344;28;1067;-18
2023/03/13 11:59:39;;;;;;;;;;;;;;;26.46;24.01;101383.13;5074859;28;1163;-18
2023/03/13 12:02:25;;;;;;;;;;;;;;;26.32;23.82;101381.84;5056408;28;1771;-18
2023/03/13 12:04:53;;;;;;;;;;;;;;;26.40;23.51;101377.34;5068933;28;1403;-18
2023/03/13 12:07:48;;;;;;;;;;;;;;;26.55;23.46;101374.03;5086368;28;1973;-18
2023/03/13 12:10:14;;;;;;;;;;;;;;;26.48;23.18;101376.53;5056052;28;1537;-18
2023/03/13 12:12:40;;;;;;;;;;;;;;;26.41;23.23;101379.03;5070872;28;1266;-18
2023/03/13 12:15:14;;;;;;;;;;;;;;;26.41;23.36;101368.25;5065818;28;1084;-18
2023/03/13 12:18:03;;;;;;;;;;;;;;;26.57;23.38;101371.16;5058541;28;1068;-18
2023/03/13 12:20:48;;;;;;;;;;;;;;;26.44;23.61;101367.09;5038346;28;1180;-18
2023/03/13 12:23:23;;;;;;;;;;;;;;;26.31;23.15;101369.38;5065229;28;982;-18
2023/03/13 12:25:53;;;;;;;;;;;;;;;26.32;23.09;101365.66;5057669;28;1261;-18
2023/03/13 12:28:27;;;;;;;;;;;;;;;26.29;22.67;101364.13;5040253;28;1902;-18
2023/03/13 12:30:56;;;;;;;;;;;;;;;26.39;22.46;101364.84;5070540;28;1184;-18
2023/03/13 12:33:24;;;;;;;;;;;;;;;26.31;22.85;101374.75;5067831;28;1044;-18
2023/03/13 12:35:53;;;;;;;;;;;;;;;26.37;22.79;101366.91;5065820;28;1000;-18
2023/03/13 12:38:19;;;;;;;;;;;;;;;26.36;22.65;101372.47;5058675;28;1127;-18
2023/03/13 12:40:47;;;;;;;;;;;;;;;26.46;22.65;101370.44;5065181;28;1229;-18
2023/03/13 12:43:20;;;;;;;;;;;;;;;26.19;22.68;101371.50;5077982;28;1147;-18
2023/03/13 12:45:57;;;;;;;;;;;;;;;26.29;22.27;101373.06;5068732;28;1047;-18
2023/03/13 12:48:32;;;;;;;;;;;;;;;26.51;23.18;101375.34;5065731;28;1973;-18
2023/03/13 12:51:00;;;;;;;;;;;;;;;26.46;23.47;101369.63;5075362;28;1214;-18
2023/03/13 12:53:35;;;;;;;;;;;;;;;26.49;23.24;101370.13;5065951;28;1789;-18
2023/03/13 12:56:09;;;;;;;;;;;;;;;26.46;22.65;101369.63;5074250;28;1067;-18
2023/03/13 12:58:48;;;;;;;;;;;;;;;26.36;22.72;101369.75;5066811;28;940;-18
2023/03/13 13:02:23;;;;;;;;;;;;;;;25.97;24.20;101373.75;5097348;27;2695;-14
2023/03/13 13:04:49;;;;;;;;;;;;;;;26.13;23.49;101367.59;5132019;27;1553;-16